createdAt,value
2019-03-22T00:00:34.351Z,15.20
2019-03-22T00:05:38.739Z,14.70
2019-03-22T00:10:43.123Z,15.30
2019-03-22T00:15:47.588Z,15.78
2019-03-22T00:20:51.952Z,14.87
2019-03-22T00:25:56.294Z,15.53
2019-03-22T00:31:00.668Z,14.77
2019-03-22T00:36:05.215Z,14.90
2019-03-22T00:41:09.570Z,15.70
2019-03-22T00:46:13.964Z,15.23
2019-03-22T00:51:18.335Z,16.43
2019-03-22T00:56:22.693Z,15.43
2019-03-22T01:01:27.243Z,14.50
2019-03-22T01:06:31.591Z,14.50
2019-03-22T01:11:36.145Z,14.33
2019-03-22T01:16:40.663Z,14.87
2019-03-22T01:21:45.693Z,14.40
2019-03-22T01:26:50.077Z,13.80
2019-03-22T01:31:54.594Z,12.90
2019-03-22T01:36:58.979Z,13.73
2019-03-22T01:42:03.419Z,13.93
2019-03-22T01:47:07.765Z,14.37
2019-03-22T01:52:12.154Z,14.70
2019-03-22T01:57:16.626Z,13.57
2019-03-22T02:02:20.975Z,14.63
2019-03-22T02:07:25.346Z,14.30
2019-03-22T02:12:29.692Z,13.97
2019-03-22T02:17:34.064Z,14.87
2019-03-22T02:22:38.487Z,14.00
2019-03-22T02:27:43.201Z,13.77
2019-03-22T02:32:47.578Z,14.47
2019-03-22T02:37:51.919Z,14.53
2019-03-22T02:42:56.392Z,14.05
2019-03-22T02:48:00.743Z,14.87
2019-03-22T02:53:05.099Z,15.17
2019-03-22T02:58:20.570Z,15.07
2019-03-22T03:03:15.587Z,14.67
2019-03-22T03:08:19.926Z,13.80
2019-03-22T03:13:24.309Z,13.23
2019-03-22T03:18:28.659Z,13.27
2019-03-22T03:23:33.026Z,14.03
2019-03-22T03:28:37.716Z,12.57
2019-03-22T03:33:42.249Z,13.23
2019-03-22T03:38:46.588Z,14.17
2019-03-22T03:43:50.950Z,14.67
2019-03-22T03:48:55.325Z,13.50
2019-03-22T03:53:59.723Z,13.27
2019-03-22T03:59:04.082Z,14.07
2019-03-22T04:04:08.475Z,14.43
2019-03-22T04:09:12.827Z,13.57
2019-03-22T04:14:17.210Z,14.00
2019-03-22T04:19:21.585Z,14.40
2019-03-22T04:24:26.005Z,14.10
2019-03-22T04:29:30.368Z,14.90
2019-03-22T04:34:34.783Z,13.33
2019-03-22T04:39:39.164Z,14.23
2019-03-22T04:44:43.553Z,14.97
2019-03-22T04:49:48.797Z,15.27
2019-03-22T04:54:54.870Z,14.30
2019-03-22T04:59:59.537Z,15.27
2019-03-22T05:05:05.022Z,15.60
2019-03-22T05:10:11.143Z,14.47
2019-03-22T05:15:17.187Z,15.30
2019-03-22T05:20:23.390Z,15.00
2019-03-22T05:25:28.009Z,14.10
2019-03-22T05:30:53.595Z,15.00
2019-03-22T05:35:58.136Z,14.90
2019-03-22T05:41:02.528Z,15.20
2019-03-22T05:46:06.879Z,15.53
2019-03-22T05:51:12.298Z,14.00
2019-03-22T05:56:16.711Z,13.57
2019-03-22T06:01:21.070Z,14.43
2019-03-22T06:06:25.451Z,15.97
2019-03-22T06:11:29.823Z,14.87
2019-03-22T06:16:34.198Z,14.87
2019-03-22T06:21:38.593Z,14.90
2019-03-22T06:26:42.950Z,15.53
2019-03-22T06:31:47.329Z,14.30
2019-03-22T06:36:51.710Z,14.23
2019-03-22T06:41:56.129Z,14.27
2019-03-22T06:47:00.582Z,14.07
2019-03-22T06:52:05.018Z,14.33
2019-03-22T06:57:09.462Z,14.60
2019-03-22T07:02:13.852Z,15.47
2019-03-22T07:07:18.359Z,14.10
2019-03-22T07:12:22.715Z,14.67
2019-03-22T07:17:27.071Z,15.97
2019-03-22T07:22:31.555Z,15.70
2019-03-22T07:27:35.898Z,16.20
2019-03-22T07:32:40.263Z,15.83
2019-03-22T07:37:44.632Z,16.27
2019-03-22T07:42:49.063Z,16.33
2019-03-22T07:47:55.819Z,16.17
2019-03-22T07:52:59.525Z,15.87
2019-03-22T07:58:03.956Z,17.27
2019-03-22T08:03:08.337Z,16.53
2019-03-22T08:08:12.693Z,16.27
2019-03-22T08:13:17.055Z,17.63
2019-03-22T08:18:21.442Z,15.83
2019-03-22T08:23:25.808Z,17.03
2019-03-22T08:28:30.210Z,17.80
2019-03-22T08:33:34.768Z,17.80
2019-03-22T08:38:39.134Z,17.67
2019-03-22T08:43:43.488Z,17.73
2019-03-22T08:48:47.851Z,18.43
2019-03-22T08:53:55.393Z,17.60
2019-03-22T08:58:58.335Z,18.87
2019-03-22T09:04:02.672Z,18.87
2019-03-22T09:09:07.884Z,18.10
2019-03-22T09:14:12.270Z,17.93
2019-03-22T09:19:16.604Z,19.30
2019-03-22T09:24:21.002Z,19.13
2019-03-22T09:29:25.401Z,20.10
2019-03-22T09:34:34.008Z,18.07
2019-03-22T09:39:35.904Z,19.63
2019-03-22T09:44:44.459Z,19.20
2019-03-22T09:49:46.349Z,19.57
2019-03-22T09:54:50.741Z,20.43
2019-03-22T09:59:55.122Z,20.50
2019-03-22T10:04:59.476Z,22.02
2019-03-22T10:10:06.455Z,23.23
2019-03-22T10:15:10.847Z,23.73
2019-03-22T10:20:15.412Z,23.17
2019-03-22T10:25:19.823Z,26.40
2019-03-22T10:30:24.158Z,26.00
2019-03-22T10:35:28.550Z,24.90
2019-03-22T10:40:32.939Z,25.17
2019-03-22T10:45:37.399Z,26.37
2019-03-22T10:50:41.840Z,27.17
2019-03-22T10:55:46.249Z,27.03
2019-03-22T11:00:50.609Z,25.83
2019-03-22T11:05:54.991Z,27.00
2019-03-22T11:10:59.351Z,26.67
2019-03-22T11:16:04.064Z,26.40
2019-03-22T11:21:08.554Z,26.33
2019-03-22T11:26:13.035Z,26.57
2019-03-22T11:31:17.411Z,25.43
2019-03-22T11:36:21.837Z,23.33
2019-03-22T11:41:26.239Z,24.17
2019-03-22T11:46:31.145Z,23.80
2019-03-22T11:51:36.181Z,24.00
2019-03-22T11:56:40.569Z,23.97
2019-03-22T12:01:44.913Z,23.93
2019-03-22T12:06:49.420Z,22.97
2019-03-22T12:11:53.748Z,23.03
2019-03-22T12:16:58.172Z,21.70
2019-03-22T12:22:03.635Z,22.23
2019-03-22T12:27:08.082Z,21.33
2019-03-22T12:32:12.445Z,22.17
2019-03-22T12:37:16.835Z,21.70
2019-03-22T12:42:21.221Z,20.57
2019-03-22T12:47:25.643Z,20.00
2019-03-22T12:52:31.384Z,20.73
2019-03-22T12:57:35.850Z,19.70
2019-03-22T13:02:42.478Z,20.83
2019-03-22T13:07:46.696Z,18.70
2019-03-22T13:12:51.157Z,18.10
2019-03-22T13:17:56.029Z,17.50
2019-03-22T13:23:00.409Z,18.10
2019-03-22T13:28:04.777Z,18.90
2019-03-22T13:33:09.152Z,18.07
2019-03-22T13:38:13.554Z,17.30
2019-03-22T13:43:18.012Z,17.67
2019-03-22T13:48:22.474Z,17.73
2019-03-22T13:53:26.846Z,17.77
2019-03-22T13:58:31.235Z,21.70
2019-03-22T14:03:35.594Z,20.33
2019-03-22T14:08:39.977Z,20.13
2019-03-22T14:13:44.335Z,22.53
2019-03-22T14:18:48.730Z,21.37
2019-03-22T14:23:53.085Z,20.70
2019-03-22T14:28:57.470Z,19.83
2019-03-22T14:34:01.834Z,20.43
2019-03-22T14:39:08.456Z,19.77
2019-03-22T14:44:12.842Z,19.63
2019-03-22T14:49:17.210Z,18.00
2019-03-22T14:54:21.629Z,17.23
2019-03-22T14:59:26.069Z,17.03
2019-03-22T15:04:30.417Z,16.20
2019-03-22T15:09:34.799Z,17.77
2019-03-22T15:14:49.558Z,17.33
2019-03-22T15:20:07.683Z,18.30
2019-03-22T15:25:29.969Z,18.53
2019-03-22T15:30:38.920Z,15.27
2019-03-22T15:35:51.182Z,10.77
2019-03-22T15:40:58.528Z,9.77
2019-03-22T15:46:02.951Z,11.67
2019-03-22T15:51:07.396Z,10.57
2019-03-22T15:56:11.746Z,16.90
2019-03-22T16:01:16.293Z,11.90
2019-03-22T16:06:20.964Z,17.43
2019-03-22T16:11:25.300Z,18.33
2019-03-22T16:16:29.678Z,19.80
2019-03-22T16:21:34.083Z,20.47
2019-03-22T16:26:38.474Z,19.03
2019-03-22T16:31:42.894Z,19.80
2019-03-22T16:36:47.239Z,18.40
2019-03-22T16:41:51.679Z,16.93
2019-03-22T16:46:56.064Z,15.70
2019-03-22T16:52:00.449Z,15.97
2019-03-22T16:57:04.906Z,16.43
2019-03-22T17:02:09.294Z,15.27
2019-03-22T17:07:13.636Z,16.13
2019-03-22T17:12:18.034Z,15.53
2019-03-22T17:17:22.404Z,15.47
2019-03-22T17:22:26.811Z,15.70
2019-03-22T17:27:31.182Z,14.53
2019-03-22T17:32:35.530Z,14.50
2019-03-22T17:37:39.910Z,15.07
2019-03-22T17:42:44.346Z,15.40
2019-03-22T17:47:54.051Z,14.45
2019-03-22T17:52:58.841Z,32.73
2019-03-22T17:58:03.654Z,14.00
2019-03-22T18:03:08.092Z,13.77
2019-03-22T18:08:12.469Z,13.10
2019-03-22T18:13:17.062Z,14.33
2019-03-22T18:18:21.479Z,13.70
2019-03-22T18:23:35.502Z,14.97
2019-03-22T18:28:33.441Z,14.03
2019-03-22T18:33:37.836Z,15.40
2019-03-22T18:38:42.325Z,15.23
2019-03-22T18:43:46.768Z,15.13
2019-03-22T18:48:51.174Z,15.97
2019-03-22T18:53:55.557Z,19.57
2019-03-22T18:59:00.995Z,19.43
2019-03-22T19:04:05.476Z,19.13
2019-03-22T19:09:10.017Z,19.77
2019-03-22T19:14:14.447Z,20.17
2019-03-22T19:19:18.801Z,20.17
2019-03-22T19:24:23.350Z,62.03
2019-03-22T19:29:27.769Z,31.27
2019-03-22T19:34:32.117Z,21.07
2019-03-22T19:39:36.659Z,20.47
2019-03-22T19:44:41.049Z,21.70
2019-03-22T19:49:45.544Z,23.15
2019-03-22T19:54:50.009Z,22.80
2019-03-22T19:59:54.447Z,22.20
2019-03-22T20:05:04.726Z,22.50
2019-03-22T20:10:11.545Z,23.23
2019-03-22T20:15:15.925Z,24.73
2019-03-22T20:20:20.273Z,24.80
2019-03-22T20:25:24.640Z,25.47
2019-03-22T20:30:29.038Z,24.87
2019-03-22T20:35:33.412Z,26.90
2019-03-22T20:40:37.789Z,24.20
2019-03-22T20:45:42.152Z,25.87
2019-03-22T20:50:46.600Z,27.95
2019-03-22T20:55:51.027Z,27.87
2019-03-22T21:00:55.404Z,27.60
2019-03-22T21:06:00.089Z,27.57
2019-03-22T21:11:04.707Z,27.33
2019-03-22T21:16:09.286Z,29.00
2019-03-22T21:21:13.741Z,27.60
2019-03-22T21:26:18.101Z,27.33
2019-03-22T21:31:22.464Z,28.57
2019-03-22T21:36:30.081Z,28.47
2019-03-22T21:41:34.450Z,28.43
2019-03-22T21:46:38.854Z,28.87
2019-03-22T21:51:43.616Z,28.77
2019-03-22T21:56:48.069Z,28.20
2019-03-22T22:01:52.485Z,28.37
2019-03-22T22:06:56.967Z,28.47
2019-03-22T22:12:01.428Z,27.97
2019-03-22T22:17:06.056Z,30.70
2019-03-22T22:22:10.735Z,29.77
2019-03-22T22:27:15.186Z,30.23
2019-03-22T22:32:19.638Z,28.13
2019-03-22T22:37:24.599Z,30.53
2019-03-22T22:42:29.384Z,30.40
2019-03-22T22:47:35.504Z,29.53
2019-03-22T22:52:42.675Z,28.40
2019-03-22T22:57:47.078Z,29.00
2019-03-22T23:02:51.611Z,27.60
2019-03-22T23:07:57.216Z,28.87
2019-03-22T23:13:01.734Z,26.42
2019-03-22T23:18:06.427Z,27.05
2019-03-22T23:23:10.885Z,26.90
2019-03-22T23:28:15.405Z,27.30
2019-03-22T23:33:20.998Z,27.63
2019-03-22T23:38:27.143Z,27.13
2019-03-22T23:43:31.601Z,27.10
2019-03-22T23:48:36.047Z,27.30
2019-03-22T23:53:40.507Z,28.30
2019-03-22T23:58:45.061Z,25.43
